AMI451 KRNO-KABQ
Flight info
| Callsign | AMI451 |
|---|---|
| Flight time | 1h 45m |
| Altitude | 39000 |
| Route | ZEFFR9 PESKE MVA KU48K KL45M TBC GUP LOWBO3 |
| Aircraft | LJ35/M-SGHRWXY/SB1 |
Departure
| Time | 2026-05-08 11:48 |
|---|---|
| Airport | Reno Tahoe International Airport (KRNO) |
Arrival
| Time | 2026-05-08 13:33 |
|---|---|
| Airport | Albuquerque International Sunport (KABQ) |
| Time | Latitude | Longitude | Altitude | Speed | Heading |
|---|---|---|---|---|---|
| 2026-05-08 11:05 | 39.50185 | -119.76402 | 4418 ft | 0 kts | 90° |
| 2026-05-08 11:39 | 39.50185 | -119.76406 | 4418 ft | 2 kts | 85° |
| 2026-05-08 11:39 | 39.50180 | -119.76426 | 4418 ft | 3 kts | 56° |
| 2026-05-08 11:40 | 39.50165 | -119.76442 | 4418 ft | 3 kts | 24° |
| 2026-05-08 11:40 | 39.50157 | -119.76445 | 4418 ft | 0 kts | 13° |
| 2026-05-08 11:40 | 39.50163 | -119.76444 | 4418 ft | 2 kts | 8° |
| 2026-05-08 11:40 | 39.50177 | -119.76444 | 4418 ft | 3 kts | 336° |
| 2026-05-08 11:41 | 39.50184 | -119.76469 | 4418 ft | 4 kts | 273° |
| 2026-05-08 11:41 | 39.50183 | -119.76506 | 4418 ft | 5 kts | 269° |
| 2026-05-08 11:41 | 39.50185 | -119.76552 | 4418 ft | 6 kts | 291° |
| 2026-05-08 11:41 | 39.50221 | -119.76577 | 4418 ft | 7 kts | 356° |
| 2026-05-08 11:42 | 39.50272 | -119.76574 | 4418 ft | 8 kts | 1° |
| 2026-05-08 11:42 | 39.50333 | -119.76574 | 4418 ft | 9 kts | 0° |
| 2026-05-08 11:42 | 39.50402 | -119.76573 | 4418 ft | 11 kts | 0° |
| 2026-05-08 11:42 | 39.50479 | -119.76573 | 4418 ft | 12 kts | 0° |
| 2026-05-08 11:43 | 39.50563 | -119.76573 | 4418 ft | 13 kts | 0° |
| 2026-05-08 11:43 | 39.50655 | -119.76572 | 4418 ft | 14 kts | 0° |
| 2026-05-08 11:43 | 39.50755 | -119.76571 | 4418 ft | 15 kts | 0° |
| 2026-05-08 11:43 | 39.50855 | -119.76571 | 4418 ft | 14 kts | 360° |
| 2026-05-08 11:44 | 39.50955 | -119.76571 | 4418 ft | 15 kts | 0° |
| 2026-05-08 11:44 | 39.51049 | -119.76566 | 4418 ft | 10 kts | 22° |
| 2026-05-08 11:44 | 39.51103 | -119.76519 | 4418 ft | 8 kts | 9° |
| 2026-05-08 11:44 | 39.51162 | -119.76517 | 4418 ft | 9 kts | 360° |
| 2026-05-08 11:45 | 39.51230 | -119.76518 | 4418 ft | 10 kts | 360° |
| 2026-05-08 11:45 | 39.51306 | -119.76518 | 4418 ft | 12 kts | 360° |
| 2026-05-08 11:45 | 39.51352 | -119.76568 | 4418 ft | 8 kts | 270° |
| 2026-05-08 11:45 | 39.51352 | -119.76602 | 4418 ft | 0 kts | 270° |
| 2026-05-08 11:46 | 39.51352 | -119.76605 | 4418 ft | 1 kts | 270° |
| 2026-05-08 11:46 | 39.51352 | -119.76623 | 4418 ft | 2 kts | 270° |
| 2026-05-08 11:47 | 39.51351 | -119.76648 | 4418 ft | 3 kts | 257° |
| 2026-05-08 11:47 | 39.51335 | -119.76670 | 4418 ft | 5 kts | 204° |
| 2026-05-08 11:47 | 39.51312 | -119.76674 | 4418 ft | 6 kts | 181° |
| 2026-05-08 11:47 | 39.50986 | -119.76676 | 4418 ft | 88 kts | 180° |
| 2026-05-08 11:48 | 39.50128 | -119.76674 | 4419 ft | 155 kts | 180° |
| 2026-05-08 11:48 | 39.49342 | -119.76691 | 4501 ft | 182 kts | 180° |
| 2026-05-08 11:48 | 39.47986 | -119.76733 | 4947 ft | 198 kts | 181° |
| 2026-05-08 11:48 | 39.46598 | -119.76817 | 5491 ft | 209 kts | 184° |
| 2026-05-08 11:49 | 39.45067 | -119.76916 | 5823 ft | 231 kts | 180° |
| 2026-05-08 11:49 | 39.43478 | -119.76906 | 6213 ft | 219 kts | 179° |
| 2026-05-08 11:49 | 39.42032 | -119.76867 | 6688 ft | 198 kts | 179° |
| 2026-05-08 11:49 | 39.40723 | -119.76840 | 7145 ft | 178 kts | 180° |
| 2026-05-08 11:50 | 39.39556 | -119.76827 | 7585 ft | 157 kts | 180° |
| 2026-05-08 11:50 | 39.38550 | -119.76812 | 7983 ft | 132 kts | 180° |
| 2026-05-08 11:50 | 39.37617 | -119.76801 | 8365 ft | 140 kts | 181° |
| 2026-05-08 11:50 | 39.36609 | -119.76803 | 8917 ft | 151 kts | 181° |
| 2026-05-08 11:51 | 39.35511 | -119.76807 | 9468 ft | 166 kts | 181° |
| 2026-05-08 11:51 | 39.34299 | -119.76803 | 10019 ft | 183 kts | 181° |
| 2026-05-08 11:51 | 39.32970 | -119.76589 | 10551 ft | 205 kts | 160° |
| 2026-05-08 11:51 | 39.31695 | -119.75612 | 11093 ft | 227 kts | 144° |
| 2026-05-08 11:52 | 39.30457 | -119.74207 | 11620 ft | 247 kts | 138° |
| 2026-05-08 11:52 | 39.29211 | -119.72552 | 12142 ft | 266 kts | 135° |
| 2026-05-08 11:52 | 39.27927 | -119.70722 | 12659 ft | 283 kts | 134° |
| 2026-05-08 11:52 | 39.26587 | -119.68763 | 13176 ft | 297 kts | 133° |
| 2026-05-08 11:53 | 39.25196 | -119.66715 | 13688 ft | 310 kts | 133° |
| 2026-05-08 11:53 | 39.23737 | -119.64602 | 14197 ft | 320 kts | 134° |
| 2026-05-08 11:53 | 39.22225 | -119.62429 | 14705 ft | 329 kts | 133° |
| 2026-05-08 11:53 | 39.20696 | -119.60240 | 15203 ft | 336 kts | 134° |
| 2026-05-08 11:54 | 39.19115 | -119.57975 | 15707 ft | 342 kts | 134° |
| 2026-05-08 11:54 | 39.17510 | -119.55680 | 16210 ft | 346 kts | 134° |
| 2026-05-08 11:54 | 39.15867 | -119.53386 | 16712 ft | 350 kts | 135° |
| 2026-05-08 11:54 | 39.14174 | -119.51118 | 17216 ft | 352 kts | 136° |
| 2026-05-08 11:55 | 39.12438 | -119.48879 | 17725 ft | 353 kts | 137° |
| 2026-05-08 11:55 | 39.10675 | -119.46662 | 18229 ft | 354 kts | 137° |
| 2026-05-08 11:55 | 39.08910 | -119.44491 | 18727 ft | 354 kts | 138° |
| 2026-05-08 11:55 | 39.07103 | -119.42274 | 19234 ft | 354 kts | 138° |
| 2026-05-08 11:56 | 39.05353 | -119.40110 | 19728 ft | 353 kts | 138° |
| 2026-05-08 11:56 | 39.03584 | -119.37938 | 20226 ft | 351 kts | 138° |
| 2026-05-08 11:56 | 39.01818 | -119.35769 | 20727 ft | 349 kts | 138° |
| 2026-05-08 11:56 | 39.00066 | -119.33614 | 21226 ft | 347 kts | 138° |
| 2026-05-08 11:57 | 38.98329 | -119.31479 | 21723 ft | 345 kts | 138° |
| 2026-05-08 11:57 | 38.96606 | -119.29353 | 22221 ft | 342 kts | 138° |
| 2026-05-08 11:57 | 38.94903 | -119.27243 | 22718 ft | 339 kts | 138° |
| 2026-05-08 11:57 | 38.93215 | -119.25143 | 23217 ft | 335 kts | 138° |
| 2026-05-08 11:58 | 38.91547 | -119.23063 | 23639 ft | 334 kts | 138° |
| 2026-05-08 11:58 | 38.89886 | -119.20987 | 24060 ft | 332 kts | 138° |
| 2026-05-08 11:58 | 38.88238 | -119.18955 | 24372 ft | 334 kts | 138° |
| 2026-05-08 11:59 | 38.84799 | -119.14747 | 24971 ft | 348 kts | 138° |
| 2026-05-08 11:59 | 38.83041 | -119.12579 | 25275 ft | 353 kts | 138° |
| 2026-05-08 11:59 | 38.81246 | -119.10388 | 25578 ft | 358 kts | 138° |
| 2026-05-08 11:59 | 38.79460 | -119.08128 | 25881 ft | 364 kts | 134° |
| 2026-05-08 12:00 | 38.77919 | -119.05522 | 26183 ft | 372 kts | 123° |
| 2026-05-08 12:00 | 38.76724 | -119.02554 | 26487 ft | 378 kts | 114° |
| 2026-05-08 12:00 | 38.75850 | -118.99388 | 26788 ft | 384 kts | 107° |
| 2026-05-08 12:00 | 38.75177 | -118.96063 | 27092 ft | 388 kts | 103° |
| 2026-05-08 12:01 | 38.74603 | -118.92666 | 27395 ft | 392 kts | 102° |
| 2026-05-08 12:01 | 38.74045 | -118.89227 | 27698 ft | 395 kts | 102° |
| 2026-05-08 12:01 | 38.73460 | -118.85779 | 27999 ft | 397 kts | 103° |
| 2026-05-08 12:01 | 38.72831 | -118.82319 | 28301 ft | 399 kts | 104° |
| 2026-05-08 12:02 | 38.72158 | -118.78847 | 28604 ft | 400 kts | 104° |
| 2026-05-08 12:02 | 38.71472 | -118.75435 | 28901 ft | 401 kts | 105° |
| 2026-05-08 12:02 | 38.70764 | -118.71980 | 29201 ft | 402 kts | 105° |
| 2026-05-08 12:02 | 38.70033 | -118.68517 | 29501 ft | 404 kts | 105° |
| 2026-05-08 12:03 | 38.69291 | -118.65036 | 29803 ft | 407 kts | 105° |
| 2026-05-08 12:03 | 38.68556 | -118.61526 | 30104 ft | 409 kts | 105° |
| 2026-05-08 12:03 | 38.67821 | -118.57990 | 30406 ft | 411 kts | 105° |
| 2026-05-08 12:03 | 38.67088 | -118.54447 | 30707 ft | 413 kts | 105° |
| 2026-05-08 12:04 | 38.66353 | -118.50884 | 31009 ft | 414 kts | 104° |
| 2026-05-08 12:04 | 38.65633 | -118.47321 | 31309 ft | 414 kts | 104° |
| 2026-05-08 12:04 | 38.64904 | -118.43744 | 31609 ft | 415 kts | 104° |
| 2026-05-08 12:04 | 38.64173 | -118.40182 | 31909 ft | 415 kts | 104° |
| 2026-05-08 12:05 | 38.63437 | -118.36602 | 32210 ft | 415 kts | 104° |
| 2026-05-08 12:05 | 38.62702 | -118.33031 | 32510 ft | 414 kts | 104° |
| 2026-05-08 12:05 | 38.61976 | -118.29506 | 32806 ft | 414 kts | 104° |
| 2026-05-08 12:05 | 38.61234 | -118.25903 | 33110 ft | 413 kts | 104° |
| 2026-05-08 12:06 | 38.60512 | -118.22393 | 33352 ft | 414 kts | 104° |
| 2026-05-08 12:06 | 38.59771 | -118.18789 | 33597 ft | 414 kts | 104° |
| 2026-05-08 12:06 | 38.59049 | -118.15271 | 33843 ft | 415 kts | 104° |
| 2026-05-08 12:06 | 38.58314 | -118.11688 | 34094 ft | 416 kts | 104° |
| 2026-05-08 12:07 | 38.57580 | -118.08103 | 34345 ft | 416 kts | 104° |
| 2026-05-08 12:07 | 38.56827 | -118.04540 | 34594 ft | 417 kts | 105° |
| 2026-05-08 12:07 | 38.56007 | -118.00968 | 34846 ft | 417 kts | 107° |
| 2026-05-08 12:07 | 38.55126 | -117.97440 | 35096 ft | 417 kts | 108° |
| 2026-05-08 12:08 | 38.54212 | -117.93980 | 35342 ft | 416 kts | 108° |
| 2026-05-08 12:08 | 38.53255 | -117.90484 | 35593 ft | 417 kts | 109° |
| 2026-05-08 12:08 | 38.52290 | -117.86977 | 35843 ft | 419 kts | 109° |
| 2026-05-08 12:08 | 38.51324 | -117.83466 | 36093 ft | 420 kts | 109° |
| 2026-05-08 12:09 | 38.50353 | -117.79933 | 36344 ft | 421 kts | 109° |
| 2026-05-08 12:09 | 38.49382 | -117.76399 | 36595 ft | 422 kts | 109° |
| 2026-05-08 12:09 | 38.48407 | -117.72853 | 36845 ft | 423 kts | 109° |
| 2026-05-08 12:09 | 38.47428 | -117.69313 | 37096 ft | 423 kts | 109° |
| 2026-05-08 12:10 | 38.46456 | -117.65772 | 37346 ft | 423 kts | 109° |
| 2026-05-08 12:10 | 38.45486 | -117.62225 | 37571 ft | 423 kts | 108° |
| 2026-05-08 12:10 | 38.44519 | -117.58673 | 37791 ft | 424 kts | 108° |
| 2026-05-08 12:10 | 38.43554 | -117.55125 | 38015 ft | 424 kts | 108° |
| 2026-05-08 12:11 | 38.42586 | -117.51562 | 38240 ft | 424 kts | 108° |
| 2026-05-08 12:11 | 38.41622 | -117.48004 | 38428 ft | 425 kts | 108° |
| 2026-05-08 12:11 | 38.40659 | -117.44444 | 38626 ft | 425 kts | 108° |
| 2026-05-08 12:11 | 38.39679 | -117.40887 | 38826 ft | 425 kts | 109° |
| 2026-05-08 12:12 | 38.38707 | -117.37378 | 39006 ft | 426 kts | 109° |
| 2026-05-08 12:12 | 38.37734 | -117.33812 | 39129 ft | 428 kts | 108° |
| 2026-05-08 12:12 | 38.35742 | -117.26600 | 39196 ft | 436 kts | 108° |
| 2026-05-08 12:13 | 38.33709 | -117.19254 | 39201 ft | 444 kts | 108° |
| 2026-05-08 12:13 | 38.31644 | -117.11805 | 39203 ft | 446 kts | 109° |
| 2026-05-08 12:14 | 38.29577 | -117.04349 | 39199 ft | 447 kts | 109° |
| 2026-05-08 12:14 | 38.27498 | -116.96891 | 39198 ft | 447 kts | 109° |
| 2026-05-08 12:15 | 38.25413 | -116.89428 | 39198 ft | 448 kts | 109° |
| 2026-05-08 12:15 | 38.23326 | -116.81954 | 39198 ft | 449 kts | 108° |
| 2026-05-08 12:16 | 38.21252 | -116.74510 | 39198 ft | 449 kts | 108° |
| 2026-05-08 12:16 | 38.19155 | -116.67014 | 39198 ft | 450 kts | 109° |
| 2026-05-08 12:17 | 38.17004 | -116.59546 | 39196 ft | 450 kts | 109° |
| 2026-05-08 12:17 | 38.14842 | -116.52062 | 39195 ft | 451 kts | 109° |
| 2026-05-08 12:18 | 38.12725 | -116.44544 | 39192 ft | 452 kts | 109° |
| 2026-05-08 12:18 | 38.10577 | -116.37042 | 39189 ft | 452 kts | 109° |
| 2026-05-08 12:19 | 38.08439 | -116.29571 | 39187 ft | 453 kts | 109° |
| 2026-05-08 12:19 | 38.06278 | -116.22032 | 39183 ft | 453 kts | 109° |
| 2026-05-08 12:20 | 38.04133 | -116.14558 | 39161 ft | 454 kts | 109° |
| 2026-05-08 12:20 | 38.01974 | -116.07008 | 39155 ft | 454 kts | 109° |
| 2026-05-08 12:21 | 37.99767 | -115.99490 | 39136 ft | 455 kts | 110° |
| 2026-05-08 12:21 | 37.97254 | -115.92115 | 39121 ft | 456 kts | 114° |
| 2026-05-08 12:22 | 37.94538 | -115.84898 | 39121 ft | 456 kts | 115° |
| 2026-05-08 12:22 | 37.91788 | -115.77662 | 39121 ft | 456 kts | 114° |
| 2026-05-08 12:23 | 37.89064 | -115.70381 | 39116 ft | 456 kts | 114° |
| 2026-05-08 12:23 | 37.86364 | -115.63118 | 39100 ft | 456 kts | 114° |
| 2026-05-08 12:24 | 37.83648 | -115.55846 | 39096 ft | 457 kts | 114° |
| 2026-05-08 12:24 | 37.80906 | -115.48647 | 39095 ft | 456 kts | 114° |
| 2026-05-08 12:25 | 37.78186 | -115.41370 | 39089 ft | 456 kts | 114° |
| 2026-05-08 12:25 | 37.75463 | -115.34118 | 39084 ft | 457 kts | 114° |
| 2026-05-08 12:26 | 37.72728 | -115.26870 | 39079 ft | 457 kts | 114° |
| 2026-05-08 12:26 | 37.70002 | -115.19669 | 39054 ft | 457 kts | 114° |
| 2026-05-08 12:27 | 37.67261 | -115.12426 | 39049 ft | 457 kts | 114° |
| 2026-05-08 12:27 | 37.64514 | -115.05192 | 39049 ft | 457 kts | 114° |
| 2026-05-08 12:28 | 37.61764 | -114.97953 | 39062 ft | 457 kts | 114° |
| 2026-05-08 12:28 | 37.59013 | -114.90719 | 39072 ft | 457 kts | 114° |
| 2026-05-08 12:29 | 37.56261 | -114.83482 | 39068 ft | 457 kts | 114° |
| 2026-05-08 12:29 | 37.53520 | -114.76261 | 39066 ft | 457 kts | 114° |
| 2026-05-08 12:30 | 37.50790 | -114.69063 | 39057 ft | 458 kts | 114° |
| 2026-05-08 12:30 | 37.47995 | -114.61836 | 39021 ft | 459 kts | 114° |
| 2026-05-08 12:31 | 37.45219 | -114.54608 | 39020 ft | 458 kts | 114° |
| 2026-05-08 12:31 | 37.42400 | -114.47398 | 39020 ft | 459 kts | 115° |
| 2026-05-08 12:32 | 37.39577 | -114.40210 | 39020 ft | 459 kts | 114° |
| 2026-05-08 12:32 | 37.36772 | -114.33043 | 39020 ft | 459 kts | 114° |
| 2026-05-08 12:33 | 37.33960 | -114.25844 | 39020 ft | 459 kts | 114° |
| 2026-05-08 12:33 | 37.31623 | -114.19841 | 39020 ft | 459 kts | 114° |
| 2026-05-08 12:34 | 37.28366 | -114.11448 | 39020 ft | 459 kts | 114° |
| 2026-05-08 12:34 | 37.26031 | -114.05415 | 39020 ft | 459 kts | 114° |
| 2026-05-08 12:35 | 37.23242 | -113.98267 | 39020 ft | 459 kts | 114° |
| 2026-05-08 12:35 | 37.20383 | -113.91070 | 39020 ft | 459 kts | 114° |
| 2026-05-08 12:36 | 37.17555 | -113.83861 | 39020 ft | 460 kts | 114° |
| 2026-05-08 12:36 | 37.14724 | -113.76727 | 39017 ft | 460 kts | 114° |
| 2026-05-08 12:37 | 37.11868 | -113.69534 | 39015 ft | 460 kts | 114° |
| 2026-05-08 12:37 | 37.09022 | -113.62354 | 39013 ft | 460 kts | 114° |
| 2026-05-08 12:38 | 37.06169 | -113.55203 | 39014 ft | 460 kts | 114° |
| 2026-05-08 12:38 | 37.03305 | -113.48039 | 39014 ft | 460 kts | 114° |
| 2026-05-08 12:39 | 37.00436 | -113.40858 | 39026 ft | 460 kts | 114° |
| 2026-05-08 12:39 | 36.97554 | -113.33727 | 39059 ft | 460 kts | 114° |
| 2026-05-08 12:40 | 36.94681 | -113.26579 | 39090 ft | 459 kts | 114° |
| 2026-05-08 12:40 | 36.91822 | -113.19442 | 39113 ft | 459 kts | 114° |
| 2026-05-08 12:41 | 36.88960 | -113.12370 | 39125 ft | 459 kts | 114° |
| 2026-05-08 12:41 | 36.86071 | -113.05238 | 39130 ft | 459 kts | 114° |
| 2026-05-08 12:42 | 36.83182 | -112.98116 | 39143 ft | 460 kts | 114° |
| 2026-05-08 12:42 | 36.80297 | -112.90997 | 39148 ft | 460 kts | 114° |
| 2026-05-08 12:43 | 36.77389 | -112.83874 | 39149 ft | 460 kts | 114° |
| 2026-05-08 12:43 | 36.74496 | -112.76784 | 39149 ft | 461 kts | 114° |
| 2026-05-08 12:44 | 36.71584 | -112.69640 | 39149 ft | 461 kts | 114° |
| 2026-05-08 12:44 | 36.68679 | -112.62510 | 39154 ft | 461 kts | 114° |
| 2026-05-08 12:45 | 36.65794 | -112.55423 | 39159 ft | 461 kts | 114° |
| 2026-05-08 12:45 | 36.62891 | -112.48297 | 39145 ft | 462 kts | 114° |
| 2026-05-08 12:46 | 36.59943 | -112.41181 | 39141 ft | 462 kts | 114° |
| 2026-05-08 12:46 | 36.56996 | -112.34057 | 39150 ft | 462 kts | 114° |
| 2026-05-08 12:47 | 36.54038 | -112.26939 | 39150 ft | 463 kts | 115° |
| 2026-05-08 12:47 | 36.51057 | -112.19848 | 39151 ft | 463 kts | 115° |
| 2026-05-08 12:48 | 36.48085 | -112.12762 | 39169 ft | 462 kts | 114° |
| 2026-05-08 12:48 | 36.45134 | -112.05709 | 39169 ft | 462 kts | 114° |
| 2026-05-08 12:49 | 36.42175 | -111.98615 | 39170 ft | 462 kts | 114° |
| 2026-05-08 12:49 | 36.39225 | -111.91529 | 39170 ft | 462 kts | 114° |
| 2026-05-08 12:50 | 36.36279 | -111.84433 | 39170 ft | 462 kts | 114° |
| 2026-05-08 12:50 | 36.33296 | -111.77362 | 39170 ft | 463 kts | 115° |
| 2026-05-08 12:51 | 36.28845 | -111.66796 | 39170 ft | 463 kts | 115° |
| 2026-05-08 12:52 | 36.25838 | -111.59720 | 39170 ft | 463 kts | 114° |
| 2026-05-08 12:52 | 36.21375 | -111.49168 | 39170 ft | 463 kts | 115° |
| 2026-05-08 12:53 | 36.18378 | -111.42110 | 39155 ft | 463 kts | 115° |
| 2026-05-08 12:53 | 36.15370 | -111.35031 | 39134 ft | 464 kts | 114° |
| 2026-05-08 12:54 | 36.12418 | -111.27915 | 39134 ft | 463 kts | 112° |
| 2026-05-08 12:54 | 36.10009 | -111.20550 | 39134 ft | 460 kts | 105° |
| 2026-05-08 12:55 | 36.08088 | -111.13008 | 39135 ft | 460 kts | 103° |
| 2026-05-08 12:55 | 36.06251 | -111.05484 | 39135 ft | 460 kts | 103° |
| 2026-05-08 12:56 | 36.04335 | -110.97926 | 39127 ft | 461 kts | 103° |
| 2026-05-08 12:56 | 36.02355 | -110.90364 | 39126 ft | 461 kts | 104° |
| 2026-05-08 12:57 | 36.00373 | -110.82833 | 39126 ft | 461 kts | 104° |
| 2026-05-08 12:57 | 35.98398 | -110.75329 | 39127 ft | 461 kts | 103° |
| 2026-05-08 12:58 | 35.96406 | -110.67802 | 39110 ft | 461 kts | 104° |
| 2026-05-08 12:58 | 35.94416 | -110.60258 | 39102 ft | 461 kts | 103° |
| 2026-05-08 12:59 | 35.92431 | -110.52731 | 39130 ft | 460 kts | 103° |
| 2026-05-08 12:59 | 35.90453 | -110.45217 | 39134 ft | 460 kts | 103° |
| 2026-05-08 13:00 | 35.88487 | -110.37749 | 39137 ft | 460 kts | 103° |
| 2026-05-08 13:00 | 35.86496 | -110.30243 | 39141 ft | 461 kts | 104° |
| 2026-05-08 13:01 | 35.84479 | -110.22741 | 39144 ft | 461 kts | 103° |
| 2026-05-08 13:01 | 35.82459 | -110.15240 | 39148 ft | 461 kts | 104° |
| 2026-05-08 13:02 | 35.80453 | -110.07782 | 39151 ft | 461 kts | 104° |
| 2026-05-08 13:02 | 35.78418 | -110.00271 | 39156 ft | 461 kts | 104° |
| 2026-05-08 13:03 | 35.76377 | -109.92770 | 39160 ft | 461 kts | 104° |
| 2026-05-08 13:03 | 35.74340 | -109.85271 | 39167 ft | 461 kts | 104° |
| 2026-05-08 13:04 | 35.72309 | -109.77837 | 38921 ft | 448 kts | 104° |
| 2026-05-08 13:04 | 35.71322 | -109.74280 | 38489 ft | 428 kts | 104° |
| 2026-05-08 13:04 | 35.70376 | -109.70880 | 38076 ft | 411 kts | 103° |
| 2026-05-08 13:05 | 35.69452 | -109.67569 | 37670 ft | 408 kts | 103° |
| 2026-05-08 13:05 | 35.68541 | -109.64302 | 37275 ft | 410 kts | 103° |
| 2026-05-08 13:05 | 35.67613 | -109.60974 | 36876 ft | 413 kts | 103° |
| 2026-05-08 13:05 | 35.66679 | -109.57614 | 36477 ft | 415 kts | 103° |
| 2026-05-08 13:06 | 35.65755 | -109.54240 | 36077 ft | 417 kts | 103° |
| 2026-05-08 13:06 | 35.64828 | -109.50849 | 35677 ft | 418 kts | 103° |
| 2026-05-08 13:06 | 35.63897 | -109.47464 | 35279 ft | 420 kts | 103° |
| 2026-05-08 13:06 | 35.62954 | -109.44044 | 34878 ft | 421 kts | 103° |
| 2026-05-08 13:07 | 35.62014 | -109.40635 | 34478 ft | 421 kts | 103° |
| 2026-05-08 13:07 | 35.61074 | -109.37228 | 34080 ft | 422 kts | 103° |
| 2026-05-08 13:07 | 35.60131 | -109.33809 | 33680 ft | 422 kts | 103° |
| 2026-05-08 13:07 | 35.59203 | -109.30433 | 33285 ft | 422 kts | 103° |
| 2026-05-08 13:08 | 35.58270 | -109.27009 | 32885 ft | 423 kts | 103° |
| 2026-05-08 13:08 | 35.57345 | -109.23588 | 32486 ft | 423 kts | 103° |
| 2026-05-08 13:08 | 35.56421 | -109.20176 | 32342 ft | 420 kts | 103° |
| 2026-05-08 13:08 | 35.55480 | -109.16757 | 32253 ft | 424 kts | 103° |
| 2026-05-08 13:09 | 35.54520 | -109.13276 | 32224 ft | 436 kts | 103° |
| 2026-05-08 13:09 | 35.53542 | -109.09714 | 32220 ft | 444 kts | 103° |
| 2026-05-08 13:09 | 35.51541 | -109.02419 | 32223 ft | 456 kts | 104° |
| 2026-05-08 13:10 | 35.49509 | -108.95225 | 32222 ft | 441 kts | 104° |
| 2026-05-08 13:10 | 35.47629 | -108.88016 | 32221 ft | 444 kts | 98° |
| 2026-05-08 13:11 | 35.46926 | -108.80499 | 32224 ft | 444 kts | 85° |
| 2026-05-08 13:11 | 35.47214 | -108.72910 | 32224 ft | 447 kts | 80° |
| 2026-05-08 13:12 | 35.47696 | -108.65258 | 32223 ft | 452 kts | 81° |
| 2026-05-08 13:12 | 35.47976 | -108.57630 | 32222 ft | 441 kts | 83° |
| 2026-05-08 13:13 | 35.48102 | -108.50218 | 32217 ft | 427 kts | 84° |
| 2026-05-08 13:13 | 35.48179 | -108.43031 | 32212 ft | 416 kts | 84° |
| 2026-05-08 13:14 | 35.48228 | -108.36042 | 32209 ft | 409 kts | 85° |
| 2026-05-08 13:14 | 35.47973 | -108.29221 | 31727 ft | 389 kts | 88° |
| 2026-05-08 13:15 | 35.47756 | -108.25933 | 31328 ft | 386 kts | 89° |
| 2026-05-08 13:15 | 35.47521 | -108.22622 | 30950 ft | 392 kts | 89° |
| 2026-05-08 13:15 | 35.47282 | -108.19282 | 30575 ft | 392 kts | 89° |
| 2026-05-08 13:15 | 35.47046 | -108.15956 | 30199 ft | 391 kts | 89° |
| 2026-05-08 13:16 | 35.46815 | -108.12618 | 29825 ft | 395 kts | 89° |
| 2026-05-08 13:16 | 35.46590 | -108.09224 | 29449 ft | 399 kts | 89° |
| 2026-05-08 13:16 | 35.46373 | -108.05821 | 29076 ft | 402 kts | 89° |
| 2026-05-08 13:16 | 35.46165 | -108.02418 | 28706 ft | 405 kts | 89° |
| 2026-05-08 13:17 | 35.45961 | -107.98960 | 28331 ft | 404 kts | 89° |
| 2026-05-08 13:17 | 35.45763 | -107.95525 | 27954 ft | 402 kts | 89° |
| 2026-05-08 13:17 | 35.45555 | -107.92107 | 27579 ft | 401 kts | 90° |
| 2026-05-08 13:17 | 35.45337 | -107.88695 | 27203 ft | 399 kts | 90° |
| 2026-05-08 13:18 | 35.45120 | -107.85293 | 26828 ft | 402 kts | 90° |
| 2026-05-08 13:18 | 35.44907 | -107.81875 | 26454 ft | 401 kts | 90° |
| 2026-05-08 13:18 | 35.44701 | -107.78502 | 26082 ft | 401 kts | 90° |
| 2026-05-08 13:18 | 35.44499 | -107.75099 | 25708 ft | 401 kts | 90° |
| 2026-05-08 13:19 | 35.44295 | -107.71682 | 25333 ft | 401 kts | 90° |
| 2026-05-08 13:19 | 35.44077 | -107.68262 | 24957 ft | 402 kts | 90° |
| 2026-05-08 13:19 | 35.43855 | -107.64842 | 24582 ft | 402 kts | 91° |
| 2026-05-08 13:19 | 35.43637 | -107.61427 | 24207 ft | 402 kts | 91° |
| 2026-05-08 13:20 | 35.43422 | -107.57992 | 23831 ft | 403 kts | 91° |
| 2026-05-08 13:20 | 35.43218 | -107.54606 | 23461 ft | 403 kts | 91° |
| 2026-05-08 13:20 | 35.43005 | -107.51163 | 23085 ft | 404 kts | 91° |
| 2026-05-08 13:20 | 35.42781 | -107.47771 | 22709 ft | 384 kts | 91° |
| 2026-05-08 13:21 | 35.42564 | -107.44637 | 22327 ft | 353 kts | 91° |
| 2026-05-08 13:21 | 35.42370 | -107.41752 | 21944 ft | 328 kts | 90° |
| 2026-05-08 13:21 | 35.42166 | -107.39048 | 21561 ft | 310 kts | 94° |
| 2026-05-08 13:21 | 35.41673 | -107.36515 | 21181 ft | 302 kts | 104° |
| 2026-05-08 13:22 | 35.40881 | -107.34138 | 20804 ft | 301 kts | 112° |
| 2026-05-08 13:22 | 35.40246 | -107.32630 | 20556 ft | 300 kts | 115° |
| 2026-05-08 13:22 | 35.39195 | -107.30435 | 20183 ft | 298 kts | 118° |
| 2026-05-08 13:22 | 35.37725 | -107.27594 | 19607 ft | 299 kts | 120° |
| 2026-05-08 13:23 | 35.36593 | -107.25443 | 19132 ft | 300 kts | 120° |
| 2026-05-08 13:23 | 35.35826 | -107.23986 | 18813 ft | 301 kts | 120° |
| 2026-05-08 13:23 | 35.34716 | -107.21848 | 18346 ft | 302 kts | 120° |
| 2026-05-08 13:23 | 35.33609 | -107.19663 | 17872 ft | 302 kts | 119° |
| 2026-05-08 13:24 | 35.32505 | -107.17477 | 17396 ft | 301 kts | 120° |
| 2026-05-08 13:24 | 35.31396 | -107.15307 | 16919 ft | 299 kts | 120° |
| 2026-05-08 13:24 | 35.30300 | -107.13161 | 16445 ft | 296 kts | 120° |
| 2026-05-08 13:24 | 35.29131 | -107.11103 | 15967 ft | 293 kts | 126° |
| 2026-05-08 13:25 | 35.27842 | -107.09188 | 15494 ft | 291 kts | 130° |
| 2026-05-08 13:25 | 35.26471 | -107.07372 | 15019 ft | 289 kts | 133° |
| 2026-05-08 13:25 | 35.25060 | -107.05633 | 14529 ft | 288 kts | 134° |
| 2026-05-08 13:25 | 35.23620 | -107.03941 | 14064 ft | 285 kts | 135° |
| 2026-05-08 13:26 | 35.22182 | -107.02314 | 13586 ft | 278 kts | 136° |
| 2026-05-08 13:26 | 35.20769 | -107.00746 | 13112 ft | 270 kts | 137° |
| 2026-05-08 13:26 | 35.19379 | -106.99235 | 12629 ft | 264 kts | 137° |
| 2026-05-08 13:26 | 35.18028 | -106.97741 | 12156 ft | 260 kts | 136° |
| 2026-05-08 13:27 | 35.16719 | -106.96247 | 11681 ft | 254 kts | 135° |
| 2026-05-08 13:27 | 35.15473 | -106.94784 | 11211 ft | 240 kts | 135° |
| 2026-05-08 13:27 | 35.14303 | -106.93382 | 10731 ft | 232 kts | 134° |
| 2026-05-08 13:27 | 35.13177 | -106.92018 | 10260 ft | 228 kts | 135° |
| 2026-05-08 13:28 | 35.12055 | -106.90666 | 9784 ft | 225 kts | 135° |
| 2026-05-08 13:28 | 35.10982 | -106.89289 | 9309 ft | 222 kts | 132° |
| 2026-05-08 13:28 | 35.09986 | -106.87896 | 9054 ft | 210 kts | 130° |
| 2026-05-08 13:28 | 35.09054 | -106.86549 | 8684 ft | 208 kts | 130° |
| 2026-05-08 13:29 | 35.08128 | -106.85194 | 8288 ft | 207 kts | 130° |
| 2026-05-08 13:29 | 35.07213 | -106.83844 | 7889 ft | 205 kts | 130° |
| 2026-05-08 13:29 | 35.06310 | -106.82501 | 7491 ft | 204 kts | 130° |
| 2026-05-08 13:29 | 35.05503 | -106.81110 | 7269 ft | 196 kts | 115° |
| 2026-05-08 13:30 | 35.05123 | -106.79562 | 7203 ft | 186 kts | 102° |
| 2026-05-08 13:30 | 35.04949 | -106.78064 | 7196 ft | 175 kts | 97° |
| 2026-05-08 13:30 | 35.04845 | -106.76603 | 7192 ft | 171 kts | 95° |
| 2026-05-08 13:30 | 35.04777 | -106.75174 | 7193 ft | 167 kts | 93° |
| 2026-05-08 13:31 | 35.04744 | -106.73767 | 7187 ft | 165 kts | 93° |
| 2026-05-08 13:31 | 35.04688 | -106.72367 | 7088 ft | 165 kts | 93° |
| 2026-05-08 13:31 | 35.04628 | -106.71029 | 6791 ft | 155 kts | 94° |
| 2026-05-08 13:31 | 35.04485 | -106.69743 | 6533 ft | 156 kts | 99° |
| 2026-05-08 13:32 | 35.04386 | -106.68377 | 6453 ft | 161 kts | 90° |
| 2026-05-08 13:32 | 35.04410 | -106.67061 | 6205 ft | 152 kts | 86° |
| 2026-05-08 13:32 | 35.04439 | -106.65786 | 5936 ft | 145 kts | 91° |
| 2026-05-08 13:32 | 35.04441 | -106.64579 | 5752 ft | 146 kts | 88° |
| 2026-05-08 13:33 | 35.04443 | -106.63300 | 5605 ft | 155 kts | 89° |
| 2026-05-08 13:33 | 35.04438 | -106.62034 | 5442 ft | 142 kts | 90° |
| 2026-05-08 13:33 | 35.04436 | -106.60913 | 5358 ft | 101 kts | 89° |
| 2026-05-08 13:33 | 35.04432 | -106.60593 | 5358 ft | 8 kts | 92° |
| 2026-05-08 13:34 | 35.04429 | -106.60529 | 5358 ft | 9 kts | 93° |
| 2026-05-08 13:34 | 35.04426 | -106.60444 | 5358 ft | 11 kts | 91° |
| 2026-05-08 13:34 | 35.04425 | -106.60341 | 5358 ft | 13 kts | 91° |
| 2026-05-08 13:34 | 35.04408 | -106.60266 | 5358 ft | 7 kts | 188° |
| 2026-05-08 13:35 | 35.04373 | -106.60316 | 5358 ft | 9 kts | 234° |
| 2026-05-08 13:35 | 35.04326 | -106.60386 | 5358 ft | 12 kts | 229° |
| 2026-05-08 13:35 | 35.04267 | -106.60469 | 5358 ft | 14 kts | 229° |
| 2026-05-08 13:35 | 35.04240 | -106.60575 | 5358 ft | 13 kts | 270° |
| 2026-05-08 13:36 | 35.04241 | -106.60687 | 5358 ft | 13 kts | 271° |
| 2026-05-08 13:36 | 35.04242 | -106.60798 | 5358 ft | 13 kts | 270° |
| 2026-05-08 13:36 | 35.04243 | -106.60888 | 5358 ft | 0 kts | 271° |
| 2026-05-08 13:37 | 35.04244 | -106.60928 | 5358 ft | 8 kts | 271° |
| 2026-05-08 13:37 | 35.04244 | -106.61019 | 5358 ft | 12 kts | 270° |
| 2026-05-08 13:37 | 35.04245 | -106.61131 | 5358 ft | 14 kts | 270° |
| 2026-05-08 13:38 | 35.04245 | -106.61256 | 5358 ft | 14 kts | 269° |
| 2026-05-08 13:38 | 35.04230 | -106.61349 | 5358 ft | 9 kts | 201° |
| 2026-05-08 13:38 | 35.04164 | -106.61360 | 5358 ft | 10 kts | 182° |
| 2026-05-08 13:38 | 35.04128 | -106.61390 | 5358 ft | 7 kts | 305° |
| 2026-05-08 13:39 | 35.04166 | -106.61443 | 5358 ft | 10 kts | 310° |
| 2026-05-08 13:39 | 35.04215 | -106.61515 | 5358 ft | 13 kts | 310° |
| 2026-05-08 13:39 | 35.04247 | -106.61602 | 5358 ft | 12 kts | 268° |
| 2026-05-08 13:39 | 35.04247 | -106.61718 | 5358 ft | 15 kts | 270° |
| 2026-05-08 13:40 | 35.04248 | -106.61837 | 5358 ft | 14 kts | 270° |
| 2026-05-08 13:40 | 35.04248 | -106.61947 | 5358 ft | 12 kts | 270° |
| 2026-05-08 13:40 | 35.04249 | -106.62046 | 5358 ft | 11 kts | 270° |
| 2026-05-08 13:40 | 35.04237 | -106.62121 | 5358 ft | 8 kts | 212° |
| 2026-05-08 13:41 | 35.04180 | -106.62129 | 5358 ft | 10 kts | 181° |
| 2026-05-08 13:41 | 35.04102 | -106.62128 | 5358 ft | 12 kts | 180° |
| 2026-05-08 13:41 | 35.04024 | -106.62130 | 5358 ft | 10 kts | 181° |
| 2026-05-08 13:41 | 35.03962 | -106.62131 | 5358 ft | 8 kts | 181° |
| 2026-05-08 13:42 | 35.03938 | -106.62100 | 5358 ft | 7 kts | 102° |
| 2026-05-08 13:42 | 35.03941 | -106.62028 | 5358 ft | 7 kts | 103° |
| 2026-05-08 13:42 | 35.03903 | -106.62005 | 5358 ft | 8 kts | 188° |
| 2026-05-08 13:42 | 35.03857 | -106.62007 | 5358 ft | 0 kts | 177° |